Time;durP1;ratioP1;P1;durP2;ratioP2;P2;SDS_P1;SDS_P2;PMS_P1;PMS_P2;Temp;Humidity;BMP_temperature;BMP_pressure;BME280_temperature;BME280_humidity;BME280_pressure;Samples;Min_cycle;Max_cycle;Signal;HPM_P1;HPM_P2
2021/12/16 00:59:33;;;;;;;76.83;34.43;;;;;;;8.54;100.00;101344.58;713835;1199;114035;-74
2021/12/16 01:46:01;;;;;;;46.47;22.20;;;;;;;8.66;100.00;101332.50;713864;1177;114194;-74
2021/12/16 02:01:17;;;;;;;57.38;25.48;;;;;;;8.59;100.00;101315.50;713729;1203;114981;-73
2021/12/16 03:02:23;;;;;;;55.87;27.60;;;;;;;8.53;100.00;101284.53;713753;1205;114229;-73
2021/12/16 03:17:35;;;;;;;59.37;23.57;;;;;;;8.44;100.00;101285.91;713717;1200;115977;-73
2021/12/16 03:33:09;;;;;;;64.37;26.07;;;;;;;8.30;100.00;101300.69;714016;1200;115922;-73
2021/12/16 03:48:15;;;;;;;56.20;24.63;;;;;;;8.18;100.00;101298.81;713892;1199;114619;-73
2021/12/16 04:03:17;;;;;;;;;;;;;;;8.12;100.00;101289.59;714540;1207;113983;-73
2021/12/16 04:18:20;;;;;;;49.58;20.43;;;;;;;8.13;100.00;101274.77;714060;1202;100186;-73
2021/12/16 04:33:23;;;;;;;49.73;20.48;;;;;;;8.22;100.00;101287.27;713968;1191;114158;-74
2021/12/16 04:48:25;;;;;;;45.83;20.58;;;;;;;8.24;100.00;101280.15;713888;1203;115596;-74
2021/12/16 05:03:28;;;;;;;47.55;20.93;;;;;;;8.19;100.00;101302.30;713807;1178;114019;-74
2021/12/16 05:18:34;;;;;;;46.23;20.33;;;;;;;8.19;100.00;101308.34;713775;1178;113910;-74
2021/12/16 05:33:37;;;;;;;48.40;19.90;;;;;;;8.21;100.00;101313.47;715005;1200;114231;-74
2021/12/16 05:48:42;;;;;;;51.28;23.18;;;;;;;8.24;100.00;101326.38;714704;1191;114298;-74
2021/12/16 06:03:45;;;;;;;48.45;19.05;;;;;;;8.25;100.00;101302.75;714755;1199;114391;-74
2021/12/16 06:34:09;;;;;;;91.60;29.20;;;;;;;8.40;100.00;101308.79;713700;1200;114850;-73
2021/12/16 06:49:15;;;;;;;193.60;52.35;;;;;;;8.50;100.00;101358.78;714016;1203;114965;-72
2021/12/16 07:04:18;;;;;;;44.10;19.30;;;;;;;8.53;100.00;101345.51;713726;1199;116140;-73
2021/12/16 07:19:20;;;;;;;62.50;36.08;;;;;;;8.60;100.00;101338.11;713955;1200;115066;-73
2021/12/16 07:34:23;;;;;;;40.80;20.05;;;;;;;8.66;100.00;101379.59;714010;1200;114277;-76
2021/12/16 07:49:36;;;;;;;124.03;70.08;;;;;;;8.62;100.00;101378.11;715481;1199;115144;-77
2021/12/16 08:04:43;;;;;;;46.95;26.55;;;;;;;8.68;100.00;101408.27;713945;1174;116083;-76
2021/12/16 08:19:46;;;;;;;76.63;34.83;;;;;;;8.68;100.00;101395.19;714121;1200;115680;-73
2021/12/16 08:34:48;;;;;;;51.33;24.20;;;;;;;8.80;100.00;101412.72;715360;1203;114179;-73
2021/12/16 08:49:51;;;;;;;28.90;16.23;;;;;;;8.95;100.00;101397.85;715020;1200;114819;-73
2021/12/16 09:04:53;;;;;;;45.23;22.30;;;;;;;8.97;100.00;101411.66;713910;1202;114701;-73
2021/12/16 09:19:56;;;;;;;15.43;9.15;;;;;;;8.99;100.00;101407.19;713921;1178;114384;-73
2021/12/16 09:34:59;;;;;;;25.70;14.88;;;;;;;9.01;100.00;101378.29;714030;1204;114322;-73
2021/12/16 09:50:06;;;;;;;25.68;14.85;;;;;;;9.29;100.00;101357.23;713926;1202;114618;-74
2021/12/16 10:05:09;;;;;;;44.47;28.70;;;;;;;9.59;100.00;101371.84;713920;1202;115457;-73
2021/12/16 10:20:19;;;;;;;16.13;10.78;;;;;;;9.50;100.00;101401.27;713972;1200;114000;-76
2021/12/16 10:35:29;;;;;;;54.03;24.83;;;;;;;9.39;100.00;101398.53;713949;1176;114180;-76
2021/12/16 10:50:51;;;;;;;12.93;8.83;;;;;;;9.49;100.00;101358.53;714664;1199;114302;-76
2021/12/16 11:05:54;;;;;;;16.53;8.30;;;;;;;9.60;100.00;101364.84;714629;1177;115384;-76
2021/12/16 11:21:07;;;;;;;12.88;7.05;;;;;;;9.82;100.00;101354.59;713891;1199;113836;-73
2021/12/16 11:36:16;;;;;;;15.98;6.15;;;;;;;10.02;100.00;101355.02;714152;1202;114926;-76
2021/12/16 11:51:28;;;;;;;27.00;9.30;;;;;;;10.29;100.00;101380.27;713972;1175;114391;-77
2021/12/16 12:06:32;;;;;;;62.08;16.88;;;;;;;9.60;100.00;101377.95;714054;1199;114702;-82
2021/12/16 12:21:42;;;;;;;156.23;49.90;;;;;;;9.52;100.00;101348.81;714824;1177;115199;-75
2021/12/16 12:36:48;;;;;;;54.00;19.80;;;;;;;10.05;100.00;101361.83;714769;1184;114457;-76
2021/12/16 12:52:02;;;;;;;153.27;50.40;;;;;;;9.32;100.00;101393.69;715641;1177;114235;-80
2021/12/16 13:07:07;;;;;;;272.23;68.80;;;;;;;9.28;100.00;101428.88;715085;1200;115385;-71
2021/12/16 13:38:08;;;;;;;80.00;34.80;;;;;;;10.11;100.00;101400.75;714962;1199;114656;-71
2021/12/16 14:08:52;;;;;;;30.07;14.53;;;;;;;8.38;100.00;101401.33;715816;1200;114261;-74
2021/12/16 14:54:30;;;;;;;36.60;13.93;;;;;;;7.57;100.00;101429.56;715926;1199;113574;-71
2021/12/16 15:09:37;;;;;;;203.73;80.60;;;;;;;7.43;100.00;101453.00;715330;1203;114030;-73
2021/12/16 15:55:20;;;;;;;34.17;16.83;;;;;;;7.59;100.00;101481.73;715024;1177;114246;-72
2021/12/16 16:10:23;;;;;;;44.30;17.43;;;;;;;7.58;100.00;101486.09;715010;1177;114006;-72
2021/12/16 16:25:26;;;;;;;84.95;34.73;;;;;;;7.46;100.00;101508.51;715222;1199;114837;-72
2021/12/16 16:40:37;;;;;;;46.80;21.70;;;;;;;7.15;100.00;101499.77;715103;1178;114453;-71
2021/12/16 16:55:39;;;;;;;27.70;11.85;;;;;;;6.92;100.00;101508.81;714879;1178;114126;-74
2021/12/16 17:10:51;;;;;;;56.98;22.28;;;;;;;6.82;100.00;101531.95;715574;1184;114275;-74
2021/12/16 17:25:54;;;;;;;29.10;13.23;;;;;;;6.66;100.00;101541.48;715013;1199;114919;-74
2021/12/16 17:41:09;;;;;;;94.63;31.05;;;;;;;6.44;100.00;101539.98;714801;1189;114071;-75
2021/12/16 17:56:12;;;;;;;39.68;19.25;;;;;;;6.34;100.00;101549.18;715139;1199;115018;-74
2021/12/16 18:11:21;;;;;;;54.75;19.05;;;;;;;6.18;100.00;101541.28;715100;1176;114282;-70
2021/12/16 18:26:30;;;;;;;452.85;182.83;;;;;;;6.08;100.00;101550.47;715488;1200;114175;-73
2021/12/16 18:41:47;;;;;;;76.65;29.30;;;;;;;5.95;100.00;101547.58;715168;1202;115026;-71
2021/12/16 18:56:51;;;;;;;95.20;40.05;;;;;;;5.88;100.00;101561.83;715218;1202;115701;-74
2021/12/16 19:12:00;;;;;;;44.18;21.38;;;;;;;5.75;100.00;101582.39;715750;1177;114563;-74
2021/12/16 19:27:07;;;;;;;40.55;17.45;;;;;;;5.60;100.00;101583.97;715082;1203;114165;-73
2021/12/16 19:42:14;;;;;;;39.67;14.40;;;;;;;5.53;100.00;101599.03;714992;1174;114561;-74
2021/12/16 19:57:19;;;;;;;53.73;14.80;;;;;;;5.47;100.00;101604.50;715038;1177;114698;-74
2021/12/16 20:12:32;;;;;;;76.88;25.08;;;;;;;5.51;100.00;101587.83;714808;1177;114804;-74
2021/12/16 20:27:40;;;;;;;57.67;17.80;;;;;;;5.45;100.00;101578.55;715607;1200;114956;-76
2021/12/16 20:42:46;;;;;;;47.90;16.13;;;;;;;5.45;100.00;101581.16;715307;1177;114279;-76
2021/12/16 20:57:53;;;;;;;53.08;16.43;;;;;;;5.45;100.00;101580.29;714620;1176;113993;-74
2021/12/16 21:12:56;;;;;;;104.90;31.30;;;;;;;5.35;100.00;101572.07;714514;1177;115046;-77
2021/12/16 21:28:01;;;;;;;40.53;10.70;;;;;;;5.22;100.00;101563.14;714295;1202;114425;-75
2021/12/16 21:43:06;;;;;;;38.20;12.48;;;;;;;5.13;100.00;101569.59;713826;1191;114154;-76
2021/12/16 21:58:11;;;;;;;32.85;10.88;;;;;;;4.87;100.00;101573.34;713901;1176;114391;-74
2021/12/16 22:13:15;;;;;;;25.93;9.57;;;;;;;4.70;100.00;101567.13;714050;1204;114958;-74
2021/12/16 22:28:17;;;;;;;32.53;11.43;;;;;;;4.71;100.00;101573.16;714004;1199;115726;-74
2021/12/16 22:43:22;;;;;;;27.63;7.80;;;;;;;4.59;100.00;101570.19;713983;1200;114358;-75
2021/12/16 22:58:24;;;;;;;25.47;9.23;;;;;;;4.63;100.00;101584.74;714148;1201;113923;-74
2021/12/16 23:13:30;;;;;;;22.17;5.37;;;;;;;4.59;100.00;101587.52;714141;1200;115377;-75
2021/12/16 23:28:34;;;;;;;36.90;10.13;;;;;;;4.57;100.00;101612.75;714115;1202;114615;-74
2021/12/16 23:58:58;;;;;;;16.88;5.60;;;;;;;4.50;100.00;101597.40;714482;1182;113839;-74
